createdAt,value
2018-08-06T00:00:40.515Z,1.80
2018-08-06T00:03:08.706Z,1.30
2018-08-06T00:05:36.733Z,1.70
2018-08-06T00:08:05.521Z,1.60
2018-08-06T00:10:33.530Z,1.73
2018-08-06T00:13:01.523Z,2.13
2018-08-06T00:15:29.520Z,2.30
2018-08-06T00:17:57.524Z,2.30
2018-08-06T00:20:25.554Z,2.13
2018-08-06T00:22:53.568Z,2.60
2018-08-06T00:25:21.640Z,2.77
2018-08-06T00:27:49.666Z,2.40
2018-08-06T00:30:18.782Z,2.50
2018-08-06T00:32:47.522Z,2.50
2018-08-06T00:35:15.886Z,2.70
2018-08-06T00:37:43.900Z,2.53
2018-08-06T00:40:13.476Z,2.97
2018-08-06T00:42:42.316Z,3.10
2018-08-06T00:45:11.913Z,2.30
2018-08-06T00:47:39.924Z,2.83
2018-08-06T00:50:08.432Z,2.90
2018-08-06T00:52:36.712Z,3.77
2018-08-06T00:55:05.081Z,2.87
2018-08-06T00:57:33.111Z,3.10
2018-08-06T01:00:01.157Z,3.20
2018-08-06T01:02:29.197Z,3.10
2018-08-06T01:04:57.199Z,3.20
2018-08-06T01:07:25.273Z,3.57
2018-08-06T01:09:53.601Z,3.20
2018-08-06T01:12:21.593Z,2.83
2018-08-06T01:14:49.672Z,3.50
2018-08-06T01:17:17.698Z,3.63
2018-08-06T01:19:45.680Z,3.07
2018-08-06T01:22:13.661Z,3.50
2018-08-06T01:24:41.696Z,3.00
2018-08-06T01:27:09.738Z,3.60
2018-08-06T01:29:37.737Z,3.10
2018-08-06T01:32:05.724Z,3.23
2018-08-06T01:34:33.744Z,3.00
2018-08-06T01:37:01.764Z,3.17
2018-08-06T01:39:29.784Z,3.13
2018-08-06T01:41:57.938Z,2.50
2018-08-06T01:44:25.928Z,3.77
2018-08-06T01:46:53.916Z,2.50
2018-08-06T01:49:21.917Z,2.47
2018-08-06T01:51:49.997Z,2.27
2018-08-06T01:54:17.993Z,2.93
2018-08-06T01:56:46.013Z,2.67
2018-08-06T01:59:14.005Z,2.87
2018-08-06T02:01:42.296Z,2.83
2018-08-06T02:04:10.358Z,2.80
2018-08-06T02:06:38.356Z,2.70
2018-08-06T02:09:07.376Z,3.40
2018-08-06T02:11:35.434Z,2.80
2018-08-06T02:14:03.674Z,3.60
2018-08-06T02:16:31.696Z,2.87
2018-08-06T02:18:59.699Z,3.20
2018-08-06T02:21:27.684Z,3.07
2018-08-06T02:23:55.709Z,2.83
2018-08-06T02:26:23.734Z,2.43
2018-08-06T02:28:51.743Z,3.60
2018-08-06T02:31:19.748Z,2.70
2018-08-06T02:33:47.839Z,3.20
2018-08-06T02:36:15.876Z,2.70
2018-08-06T02:38:44.077Z,2.83
2018-08-06T02:41:12.097Z,2.93
2018-08-06T02:43:40.121Z,3.30
2018-08-06T02:46:08.103Z,2.97
2018-08-06T02:48:36.102Z,2.60
2018-08-06T02:51:04.084Z,2.50
2018-08-06T02:53:32.160Z,3.50
2018-08-06T02:56:00.169Z,3.17
2018-08-06T02:58:28.157Z,2.70
2018-08-06T03:00:56.157Z,2.37
2018-08-06T03:03:24.184Z,3.10
2018-08-06T03:05:52.177Z,2.90
2018-08-06T03:08:20.196Z,2.70
2018-08-06T03:10:48.233Z,2.63
2018-08-06T03:13:16.185Z,2.00
2018-08-06T03:15:44.233Z,2.27
2018-08-06T03:18:12.200Z,1.90
2018-08-06T03:20:40.221Z,2.17
2018-08-06T03:23:08.217Z,2.33
2018-08-06T03:25:36.205Z,2.30
2018-08-06T03:28:04.441Z,1.80
2018-08-06T03:30:32.437Z,2.10
2018-08-06T03:33:00.432Z,2.30
2018-08-06T03:35:28.469Z,2.53
2018-08-06T03:37:56.493Z,2.40
2018-08-06T03:40:24.496Z,2.33
2018-08-06T03:42:52.664Z,2.20
2018-08-06T03:45:20.684Z,2.10
2018-08-06T03:47:48.708Z,2.03
2018-08-06T03:50:16.712Z,2.90
2018-08-06T03:52:44.742Z,2.00
2018-08-06T03:55:12.939Z,2.70
2018-08-06T03:57:41.400Z,2.40
2018-08-06T04:00:11.530Z,2.47
2018-08-06T04:02:39.815Z,2.30
2018-08-06T04:05:09.128Z,2.40
2018-08-06T04:07:37.162Z,1.93
2018-08-06T04:10:05.868Z,2.57
2018-08-06T04:12:33.868Z,2.53
2018-08-06T04:15:01.883Z,2.03
2018-08-06T04:17:29.892Z,2.20
2018-08-06T04:19:57.993Z,2.03
2018-08-06T04:22:26.088Z,2.97
2018-08-06T04:24:54.124Z,2.83
2018-08-06T04:27:22.096Z,2.10
2018-08-06T04:29:50.119Z,2.57
2018-08-06T04:32:18.100Z,2.73
2018-08-06T04:34:46.134Z,2.73
2018-08-06T04:37:14.117Z,2.90
2018-08-06T04:39:42.134Z,3.10
2018-08-06T04:42:10.145Z,4.30
2018-08-06T04:44:38.175Z,4.00
2018-08-06T04:47:06.197Z,3.90
2018-08-06T04:49:34.189Z,3.63
2018-08-06T04:52:02.257Z,2.90
2018-08-06T04:54:30.233Z,3.00
2018-08-06T04:56:58.232Z,3.00
2018-08-06T04:59:26.272Z,3.70
2018-08-06T05:01:54.234Z,3.13
2018-08-06T05:04:22.272Z,3.20
2018-08-06T05:06:50.300Z,4.00
2018-08-06T05:09:22.324Z,4.07
2018-08-06T05:11:50.708Z,4.73
2018-08-06T05:14:18.833Z,5.37
2018-08-06T05:16:46.836Z,4.90
2018-08-06T05:19:14.846Z,5.33
2018-08-06T05:21:42.836Z,4.63
2018-08-06T05:24:10.864Z,4.20
2018-08-06T05:26:38.911Z,3.37
2018-08-06T05:29:06.953Z,3.50
2018-08-06T05:31:34.972Z,3.10
2018-08-06T05:34:02.989Z,3.07
2018-08-06T05:36:31.008Z,2.60
2018-08-06T05:38:59.048Z,2.83
2018-08-06T05:41:27.424Z,2.60
2018-08-06T05:43:56.217Z,3.40
2018-08-06T05:46:24.418Z,2.67
2018-08-06T05:48:52.580Z,3.30
2018-08-06T05:51:20.646Z,3.60
2018-08-06T05:53:48.617Z,3.10
2018-08-06T05:56:16.680Z,3.03
2018-08-06T05:58:44.776Z,2.77
2018-08-06T06:01:12.790Z,2.70
2018-08-06T06:03:40.780Z,2.67
2018-08-06T06:06:09.256Z,2.60
2018-08-06T06:08:38.142Z,3.03
2018-08-06T06:11:06.536Z,2.70
2018-08-06T06:13:34.943Z,1.93
2018-08-06T06:16:02.980Z,2.30
2018-08-06T06:18:31.012Z,2.33
2018-08-06T06:20:59.042Z,2.20
2018-08-06T06:23:27.075Z,2.23
2018-08-06T06:25:55.166Z,2.87
2018-08-06T06:28:23.180Z,2.00
2018-08-06T06:30:51.305Z,2.30
2018-08-06T06:33:19.349Z,1.60
2018-08-06T06:35:47.453Z,1.80
2018-08-06T06:38:15.473Z,2.10
2018-08-06T06:40:43.515Z,2.43
2018-08-06T06:43:11.536Z,2.33
2018-08-06T06:45:39.656Z,2.07
2018-08-06T06:48:07.908Z,2.47
2018-08-06T06:50:35.949Z,2.13
2018-08-06T06:53:04.196Z,2.57
2018-08-06T06:55:32.216Z,1.80
2018-08-06T06:58:00.256Z,1.90
2018-08-06T07:00:28.342Z,2.00
2018-08-06T07:02:56.385Z,2.63
2018-08-06T07:05:24.395Z,2.33
2018-08-06T07:07:52.469Z,2.20
2018-08-06T07:10:20.476Z,2.17
2018-08-06T07:12:48.493Z,2.10
2018-08-06T07:15:17.304Z,1.93
2018-08-06T07:17:47.032Z,1.30
2018-08-06T07:20:16.326Z,1.90
2018-08-06T07:22:44.313Z,1.80
2018-08-06T07:25:12.726Z,1.93
2018-08-06T07:27:41.825Z,1.60
2018-08-06T07:30:12.412Z,1.53
2018-08-06T07:32:41.294Z,1.30
2018-08-06T07:35:10.377Z,1.60
2018-08-06T07:37:38.667Z,1.63
2018-08-06T07:40:08.598Z,1.67
2018-08-06T07:42:36.589Z,1.50
2018-08-06T07:45:06.737Z,1.30
2018-08-06T07:47:34.748Z,1.70
2018-08-06T07:50:02.845Z,1.50
2018-08-06T07:52:30.891Z,1.57
2018-08-06T07:54:58.874Z,1.70
2018-08-06T07:57:26.936Z,1.60
2018-08-06T07:59:54.937Z,1.17
2018-08-06T08:02:29.674Z,1.20
2018-08-06T08:04:57.715Z,1.73
2018-08-06T08:07:25.797Z,1.77
2018-08-06T08:09:53.810Z,1.53
2018-08-06T08:12:21.930Z,1.83
2018-08-06T08:14:49.989Z,1.30
2018-08-06T08:17:18.117Z,1.33
2018-08-06T08:19:46.273Z,1.43
2018-08-06T08:22:14.345Z,1.50
2018-08-06T08:24:43.192Z,1.40
2018-08-06T08:27:11.454Z,1.23
2018-08-06T08:29:39.612Z,0.90
2018-08-06T08:32:14.324Z,1.40
2018-08-06T08:34:42.510Z,1.57
2018-08-06T08:37:10.676Z,1.33
2018-08-06T08:39:38.860Z,1.30
2018-08-06T08:42:06.873Z,1.10
2018-08-06T08:44:35.220Z,1.50
2018-08-06T08:47:03.204Z,1.33
2018-08-06T08:49:31.288Z,1.60
2018-08-06T08:51:59.333Z,1.50
2018-08-06T08:54:27.372Z,1.90
2018-08-06T08:56:55.409Z,1.50
2018-08-06T08:59:23.412Z,1.40
2018-08-06T09:01:51.556Z,1.70
2018-08-06T09:04:19.756Z,2.10
2018-08-06T09:06:47.821Z,1.47
2018-08-06T09:09:15.878Z,1.30
2018-08-06T09:11:43.933Z,1.60
2018-08-06T09:14:12.036Z,1.70
2018-08-06T09:16:40.000Z,1.73
2018-08-06T09:19:07.996Z,1.77
2018-08-06T09:21:36.009Z,1.43
2018-08-06T09:24:04.208Z,1.50
2018-08-06T09:26:32.228Z,1.67
2018-08-06T09:29:00.544Z,1.90
2018-08-06T09:31:28.604Z,1.90
2018-08-06T09:33:56.642Z,2.00
2018-08-06T09:36:24.661Z,1.83
2018-08-06T09:38:52.784Z,2.20
2018-08-06T09:41:20.891Z,1.80
2018-08-06T09:43:49.108Z,1.90
2018-08-06T09:46:17.170Z,2.00
2018-08-06T09:48:45.248Z,1.83
2018-08-06T09:51:13.284Z,1.93
2018-08-06T09:53:41.456Z,1.67
2018-08-06T09:56:09.537Z,1.83
2018-08-06T09:58:37.651Z,1.93
2018-08-06T10:01:11.312Z,1.63
2018-08-06T10:03:39.398Z,2.10
2018-08-06T10:06:07.567Z,2.30
2018-08-06T10:08:35.572Z,1.90
2018-08-06T10:11:03.652Z,2.30
2018-08-06T10:13:31.712Z,2.10
2018-08-06T10:15:59.793Z,2.80
2018-08-06T10:18:27.947Z,1.70
2018-08-06T10:20:56.088Z,2.10
2018-08-06T10:23:24.391Z,1.73
2018-08-06T10:25:54.284Z,1.50
2018-08-06T10:28:22.648Z,2.07
2018-08-06T10:30:50.661Z,1.37
2018-08-06T10:33:18.688Z,1.60
2018-08-06T10:35:46.704Z,1.23
2018-08-06T10:38:14.716Z,1.50
2018-08-06T10:40:42.739Z,1.63
2018-08-06T10:43:10.788Z,1.40
2018-08-06T10:45:38.829Z,1.70
2018-08-06T10:48:06.808Z,1.40
2018-08-06T10:50:34.873Z,1.27
2018-08-06T10:53:02.889Z,1.60
2018-08-06T10:55:30.966Z,1.47
2018-08-06T10:57:59.037Z,1.40
2018-08-06T11:00:27.021Z,1.30
2018-08-06T11:02:55.082Z,1.27
2018-08-06T11:05:23.044Z,1.50
2018-08-06T11:07:51.045Z,1.03
2018-08-06T11:10:20.336Z,1.47
2018-08-06T11:12:48.376Z,1.60
2018-08-06T11:15:19.057Z,1.50
2018-08-06T11:17:47.109Z,2.07
2018-08-06T11:20:16.025Z,1.37
2018-08-06T11:22:44.104Z,1.83
2018-08-06T11:25:16.646Z,1.70
2018-08-06T11:27:44.656Z,1.20
2018-08-06T11:30:14.616Z,1.53
2018-08-06T11:32:42.670Z,1.23
2018-08-06T11:35:11.396Z,1.47
2018-08-06T11:37:39.548Z,1.10
2018-08-06T11:40:09.076Z,1.10
2018-08-06T11:42:37.616Z,1.27
2018-08-06T11:45:06.026Z,1.40
2018-08-06T11:47:34.130Z,1.80
2018-08-06T11:50:02.153Z,2.20
2018-08-06T11:52:30.150Z,1.30
2018-08-06T11:54:58.140Z,1.47
2018-08-06T11:57:26.148Z,1.37
2018-08-06T11:59:54.188Z,1.17
2018-08-06T12:02:22.581Z,1.47
2018-08-06T12:04:50.746Z,1.20
2018-08-06T12:07:18.769Z,1.50
2018-08-06T12:09:46.778Z,1.47
2018-08-06T12:12:14.779Z,1.37
2018-08-06T12:14:43.084Z,1.50
2018-08-06T12:17:11.098Z,1.00
2018-08-06T12:19:39.093Z,1.17
2018-08-06T12:22:07.202Z,1.30
2018-08-06T12:24:35.200Z,1.07
2018-08-06T12:27:03.184Z,1.20
2018-08-06T12:29:31.184Z,1.17
2018-08-06T12:31:59.512Z,1.17
2018-08-06T12:34:27.784Z,1.27
2018-08-06T12:36:55.797Z,1.53
2018-08-06T12:39:23.898Z,1.20
2018-08-06T12:41:51.980Z,1.20
2018-08-06T12:44:19.988Z,1.43
2018-08-06T12:46:48.011Z,1.10
2018-08-06T12:49:16.021Z,1.23
2018-08-06T12:51:44.072Z,1.20
2018-08-06T12:54:12.083Z,1.17
2018-08-06T12:56:40.155Z,1.40
2018-08-06T12:59:08.165Z,1.13
2018-08-06T13:01:36.215Z,1.13
2018-08-06T13:04:04.230Z,1.30
2018-08-06T13:06:32.228Z,1.23
2018-08-06T13:09:00.220Z,1.20
2018-08-06T13:11:28.279Z,1.10
2018-08-06T13:13:56.221Z,1.30
2018-08-06T13:16:24.224Z,1.10
2018-08-06T13:18:52.361Z,1.33
2018-08-06T13:21:20.396Z,1.30
2018-08-06T13:23:48.457Z,1.23
2018-08-06T13:26:16.463Z,1.10
2018-08-06T13:28:45.476Z,2.03
2018-08-06T13:31:13.621Z,1.40
2018-08-06T13:33:41.661Z,1.37
2018-08-06T13:36:09.732Z,1.40
2018-08-06T13:38:37.728Z,1.60
2018-08-06T13:41:05.812Z,1.70
2018-08-06T13:43:33.816Z,1.50
2018-08-06T13:46:01.816Z,1.90
2018-08-06T13:48:29.825Z,1.80
2018-08-06T13:50:57.925Z,2.77
2018-08-06T13:53:25.955Z,1.20
2018-08-06T13:55:53.940Z,1.50
2018-08-06T13:58:22.023Z,1.50
2018-08-06T14:00:50.038Z,1.40
2018-08-06T14:03:18.020Z,1.57
2018-08-06T14:05:45.979Z,1.00
2018-08-06T14:08:14.056Z,1.20
2018-08-06T14:10:42.072Z,1.10
2018-08-06T14:13:10.208Z,1.43
2018-08-06T14:15:38.197Z,1.10
2018-08-06T14:18:06.197Z,1.00
2018-08-06T14:20:34.187Z,1.67
2018-08-06T14:23:02.177Z,1.40
2018-08-06T14:25:30.260Z,1.20
2018-08-06T14:27:58.274Z,1.10
2018-08-06T14:30:26.278Z,1.47
2018-08-06T14:32:54.296Z,1.27
2018-08-06T14:35:22.388Z,1.27
2018-08-06T14:37:50.854Z,1.37
2018-08-06T14:40:19.562Z,1.17
2018-08-06T14:42:47.920Z,1.07
2018-08-06T14:45:15.968Z,1.40
2018-08-06T14:47:43.982Z,1.33
2018-08-06T14:50:13.356Z,1.30
2018-08-06T14:52:41.400Z,1.33
2018-08-06T14:55:09.469Z,1.20
2018-08-06T14:57:38.758Z,1.20
2018-08-06T15:00:22.744Z,1.33
2018-08-06T15:02:51.746Z,0.80
2018-08-06T15:05:19.809Z,0.80
2018-08-06T15:07:48.065Z,0.97
2018-08-06T15:10:16.995Z,0.97
2018-08-06T15:12:45.701Z,1.37
2018-08-06T15:15:18.477Z,1.10
2018-08-06T15:17:47.047Z,0.90
2018-08-06T15:20:17.389Z,1.00
2018-08-06T15:22:47.108Z,1.10
2018-08-06T15:25:19.023Z,1.00
2018-08-06T15:27:50.740Z,0.80
2018-08-06T15:30:18.826Z,1.07
2018-08-06T15:32:46.890Z,1.40
2018-08-06T15:35:15.078Z,1.20
2018-08-06T15:37:43.864Z,1.33
2018-08-06T15:40:15.080Z,1.10
2018-08-06T15:42:43.060Z,1.23
2018-08-06T15:45:12.012Z,1.40
2018-08-06T15:47:40.402Z,1.27
2018-08-06T15:50:10.906Z,0.97
2018-08-06T15:52:39.516Z,1.50
2018-08-06T15:55:08.695Z,1.30
2018-08-06T15:57:36.720Z,1.40
2018-08-06T16:00:06.392Z,1.20
2018-08-06T16:02:34.728Z,1.20
2018-08-06T16:05:02.765Z,1.00
2018-08-06T16:07:30.764Z,1.00
2018-08-06T16:09:59.157Z,1.10
2018-08-06T16:12:27.312Z,1.10
2018-08-06T16:14:57.257Z,1.33
2018-08-06T16:17:25.340Z,1.20
2018-08-06T16:19:53.663Z,1.33
2018-08-06T16:22:21.719Z,1.13
2018-08-06T16:24:50.609Z,1.20
2018-08-06T16:27:18.864Z,1.30
2018-08-06T16:29:47.113Z,1.00
2018-08-06T16:32:15.601Z,1.67
2018-08-06T16:34:43.641Z,2.77
2018-08-06T16:37:11.605Z,1.43
2018-08-06T16:39:40.156Z,1.20
2018-08-06T16:42:08.305Z,1.27
2018-08-06T16:44:37.140Z,1.23
2018-08-06T16:47:05.170Z,1.73
2018-08-06T16:49:33.347Z,0.97
2018-08-06T16:52:01.446Z,1.07
2018-08-06T16:54:29.464Z,1.07
2018-08-06T16:56:57.456Z,2.67
2018-08-06T16:59:26.056Z,2.30
2018-08-06T17:01:54.430Z,1.13
2018-08-06T17:04:22.453Z,1.37
2018-08-06T17:06:50.564Z,1.67
2018-08-06T17:09:18.557Z,1.60
2018-08-06T17:11:46.598Z,1.80
2018-08-06T17:14:14.981Z,1.60
2018-08-06T17:16:43.014Z,1.80
2018-08-06T17:19:11.058Z,1.40
2018-08-06T17:21:39.127Z,1.37
2018-08-06T17:24:07.236Z,1.30
2018-08-06T17:26:35.239Z,1.20
2018-08-06T17:29:03.351Z,1.10
2018-08-06T17:31:31.421Z,1.20
2018-08-06T17:33:59.492Z,2.20
2018-08-06T17:36:27.596Z,1.57
2018-08-06T17:38:55.761Z,1.60
2018-08-06T17:41:23.792Z,1.83
2018-08-06T17:43:51.887Z,1.23
2018-08-06T17:46:19.910Z,1.50
2018-08-06T17:48:47.944Z,1.30
2018-08-06T17:51:15.994Z,1.10
2018-08-06T17:53:44.038Z,1.27
2018-08-06T17:56:12.100Z,1.50
2018-08-06T17:58:40.217Z,1.10
2018-08-06T18:01:08.228Z,1.17
2018-08-06T18:03:36.247Z,1.43
2018-08-06T18:06:04.316Z,3.00
2018-08-06T18:08:32.390Z,1.23
2018-08-06T18:11:00.410Z,1.50
2018-08-06T18:13:28.404Z,1.50
2018-08-06T18:16:20.178Z,1.30
2018-08-06T18:18:48.201Z,1.47
2018-08-06T18:21:16.305Z,1.07
2018-08-06T18:23:44.640Z,1.70
2018-08-06T18:26:12.912Z,1.30
2018-08-06T18:28:41.946Z,1.40
2018-08-06T18:31:10.031Z,1.80
2018-08-06T18:33:38.054Z,1.37
2018-08-06T18:36:06.128Z,1.10
2018-08-06T18:38:34.199Z,1.60
2018-08-06T18:41:02.456Z,1.23
2018-08-06T18:43:30.524Z,1.53
2018-08-06T18:45:58.675Z,1.00
2018-08-06T18:48:26.707Z,1.37
2018-08-06T18:50:54.764Z,1.23
2018-08-06T18:53:22.832Z,1.40
2018-08-06T18:55:50.852Z,1.47
2018-08-06T18:58:18.944Z,1.50
2018-08-06T19:00:47.025Z,1.67
2018-08-06T19:03:15.021Z,2.20
2018-08-06T19:05:43.277Z,1.33
2018-08-06T19:08:11.377Z,1.27
2018-08-06T19:10:39.465Z,1.40
2018-08-06T19:13:12.833Z,1.70
2018-08-06T19:15:40.963Z,1.90
2018-08-06T19:18:14.451Z,1.33
2018-08-06T19:20:42.523Z,1.40
2018-08-06T19:23:10.601Z,1.37
2018-08-06T19:25:38.633Z,1.30
2018-08-06T19:28:06.653Z,1.80
2018-08-06T19:30:40.165Z,2.37
2018-08-06T19:33:08.249Z,1.00
2018-08-06T19:35:36.560Z,1.20
2018-08-06T19:38:04.609Z,2.00
2018-08-06T19:40:32.636Z,1.77
2018-08-06T19:43:06.108Z,1.50
2018-08-06T19:45:34.441Z,1.40
2018-08-06T19:48:02.438Z,1.40
2018-08-06T19:50:35.912Z,1.70
2018-08-06T19:53:04.076Z,2.00
2018-08-06T19:55:37.674Z,2.07
2018-08-06T19:58:06.145Z,1.83
2018-08-06T20:00:34.157Z,2.23
2018-08-06T20:03:02.259Z,1.70
2018-08-06T20:05:30.290Z,1.80
2018-08-06T20:07:58.297Z,1.43
2018-08-06T20:10:26.384Z,1.33
2018-08-06T20:12:54.417Z,2.00
2018-08-06T20:15:22.494Z,2.00
2018-08-06T20:17:50.737Z,1.70
2018-08-06T20:20:18.730Z,1.70
2018-08-06T20:22:46.846Z,1.77
2018-08-06T20:25:17.055Z,1.60
2018-08-06T20:27:45.748Z,1.70
2018-08-06T20:30:14.752Z,1.73
2018-08-06T20:32:42.759Z,1.83
2018-08-06T20:35:13.000Z,1.73
2018-08-06T20:37:41.363Z,1.40
2018-08-06T20:40:10.092Z,1.63
2018-08-06T20:42:40.353Z,1.63
2018-08-06T20:45:10.980Z,1.87
2018-08-06T20:47:39.722Z,1.80
2018-08-06T20:50:09.332Z,1.33
2018-08-06T20:52:37.435Z,1.33
2018-08-06T20:55:06.393Z,1.73
2018-08-06T20:57:34.412Z,1.50
2018-08-06T21:00:02.432Z,1.90
2018-08-06T21:02:30.556Z,1.70
2018-08-06T21:04:58.588Z,1.70
2018-08-06T21:07:26.730Z,1.80
2018-08-06T21:09:54.836Z,1.67
2018-08-06T21:12:25.496Z,1.70
2018-08-06T21:14:53.493Z,2.03
2018-08-06T21:17:21.560Z,1.80
2018-08-06T21:19:49.552Z,1.60
2018-08-06T21:22:17.604Z,1.63
2018-08-06T21:24:45.616Z,1.60
2018-08-06T21:27:13.676Z,2.10
2018-08-06T21:29:41.780Z,1.63
2018-08-06T21:32:09.812Z,1.60
2018-08-06T21:34:37.832Z,1.70
2018-08-06T21:37:05.893Z,2.13
2018-08-06T21:39:33.974Z,2.13
2018-08-06T21:42:02.003Z,2.03
2018-08-06T21:44:30.165Z,2.40
2018-08-06T21:46:58.145Z,2.03
2018-08-06T21:49:26.181Z,1.47
2018-08-06T21:51:54.201Z,1.60
2018-08-06T21:54:22.224Z,1.97
2018-08-06T21:56:50.240Z,1.37
2018-08-06T21:59:18.470Z,1.70
2018-08-06T22:01:46.520Z,1.57
2018-08-06T22:04:14.581Z,1.50
2018-08-06T22:06:42.594Z,1.97
2018-08-06T22:09:12.677Z,2.50
2018-08-06T22:11:40.753Z,1.50
2018-08-06T22:14:09.677Z,2.40
2018-08-06T22:16:37.950Z,1.63
2018-08-06T22:19:07.524Z,1.83
2018-08-06T22:21:35.723Z,1.47
2018-08-06T22:24:03.765Z,1.50
2018-08-06T22:26:31.780Z,1.80
2018-08-06T22:28:59.805Z,1.70
2018-08-06T22:31:28.009Z,1.30
2018-08-06T22:33:56.042Z,2.20
2018-08-06T22:36:23.989Z,1.50
2018-08-06T22:38:53.296Z,2.17
2018-08-06T22:41:21.724Z,1.73
2018-08-06T22:43:49.732Z,1.97
2018-08-06T22:46:17.843Z,2.30
2018-08-06T22:48:45.860Z,1.57
2018-08-06T22:51:13.964Z,1.70
2018-08-06T22:53:42.024Z,1.63
2018-08-06T22:56:10.769Z,1.80
2018-08-06T22:58:39.073Z,1.60
2018-08-06T23:01:08.280Z,2.20
2018-08-06T23:03:36.420Z,1.80
2018-08-06T23:06:04.477Z,1.70
2018-08-06T23:08:32.541Z,2.07
2018-08-06T23:11:00.584Z,1.47
2018-08-06T23:13:28.618Z,1.80
2018-08-06T23:15:56.620Z,1.80
2018-08-06T23:18:24.629Z,1.50
2018-08-06T23:20:52.664Z,1.83
2018-08-06T23:23:20.696Z,1.70
2018-08-06T23:25:48.731Z,1.90
2018-08-06T23:28:16.748Z,1.80
2018-08-06T23:30:44.728Z,2.40
2018-08-06T23:33:13.024Z,1.90
2018-08-06T23:35:41.062Z,2.30
2018-08-06T23:38:09.065Z,2.27
2018-08-06T23:40:37.069Z,1.90
2018-08-06T23:43:05.069Z,1.93
2018-08-06T23:45:33.064Z,1.87
2018-08-06T23:48:01.078Z,2.13
2018-08-06T23:50:29.185Z,2.23
2018-08-06T23:52:57.215Z,1.80
2018-08-06T23:55:25.309Z,2.07
2018-08-06T23:57:53.329Z,1.40
